Time;durP1;ratioP1;P1;durP2;ratioP2;P2;SDS_P1;SDS_P2;PMS_P1;PMS_P2;Temp;Humidity;BMP_temperature;BMP_pressure;BME280_temperature;BME280_humidity;BME280_pressure;Samples;Min_cycle;Max_cycle;Signal;HPM_P1;HPM_P2
2023/12/08 00:02:53;;;;;;;14.32;7.63;;;;;;;2.87;100.00;99259.19;12225317;19;20002;-84
2023/12/08 00:06:55;;;;;;;15.30;7.60;;;;;;;2.92;100.00;99256.66;12197657;19;20026;-84
2023/12/08 00:10:56;;;;;;;22.67;8.27;;;;;;;2.91;100.00;99263.13;12228046;19;20006;-84
2023/12/08 00:14:58;;;;;;;27.80;9.45;;;;;;;2.91;100.00;99265.84;12224118;19;20569;-85
2023/12/08 00:19:02;;;;;;;34.58;11.23;;;;;;;2.94;100.00;99247.25;12198337;19;20010;-84
2023/12/08 00:23:04;;;;;;;46.70;15.17;;;;;;;2.92;100.00;99226.72;12216022;19;20010;-83
2023/12/08 00:27:07;;;;;;;48.38;16.30;;;;;;;2.88;100.00;99233.63;12218497;19;21383;-84
2023/12/08 00:31:09;;;;;;;30.83;10.82;;;;;;;2.83;100.00;99233.44;12193825;19;20017;-84
2023/12/08 00:35:11;;;;;;;23.55;11.38;;;;;;;2.82;100.00;99219.00;12210437;19;20010;-85
2023/12/08 00:39:13;;;;;;;28.65;11.38;;;;;;;2.84;100.00;99218.78;12210892;19;20010;-85
2023/12/08 00:43:15;;;;;;;21.80;8.83;;;;;;;2.90;100.00;99215.22;12189942;19;20014;-84
2023/12/08 00:47:17;;;;;;;14.77;7.90;;;;;;;2.91;100.00;99219.59;12206884;19;20002;-85
2023/12/08 00:51:19;;;;;;;16.80;7.95;;;;;;;2.92;100.00;99224.84;12212553;19;20014;-85
2023/12/08 00:55:22;;;;;;;16.55;7.57;;;;;;;2.92;100.00;99208.50;12192446;19;20019;-85
2023/12/08 00:59:24;;;;;;;12.35;6.47;;;;;;;2.92;100.00;99194.06;12213316;19;20038;-85
2023/12/08 01:03:26;;;;;;;15.45;7.47;;;;;;;2.91;100.00;99195.94;12191231;19;20031;-84
2023/12/08 01:07:28;;;;;;;14.23;7.03;;;;;;;2.93;100.00;99201.16;12207293;19;20767;-84
2023/12/08 01:11:30;;;;;;;16.10;7.70;;;;;;;2.91;100.00;99222.31;12210038;19;20093;-84
2023/12/08 01:15:33;;;;;;;16.17;7.68;;;;;;;2.95;100.00;99248.06;12188306;19;20009;-85
2023/12/08 01:19:35;;;;;;;15.90;7.88;;;;;;;2.99;100.00;99213.09;12208760;19;20682;-84
2023/12/08 01:23:36;;;;;;;16.92;7.85;;;;;;;2.94;100.00;99194.66;12208184;19;20010;-85
2023/12/08 01:27:38;;;;;;;17.00;7.82;;;;;;;2.90;100.00;99209.75;12180919;19;20005;-84
2023/12/08 01:31:40;;;;;;;15.15;7.70;;;;;;;2.94;100.00;99186.50;12202268;19;20007;-85
2023/12/08 01:35:42;;;;;;;19.27;7.28;;;;;;;2.96;100.00;99176.25;12205631;19;20009;-84
2023/12/08 01:39:44;;;;;;;15.40;7.50;;;;;;;2.96;100.00;99171.63;12198652;19;20080;-83
2023/12/08 01:43:46;;;;;;;16.37;7.20;;;;;;;2.92;100.00;99162.25;12210625;19;20011;-84
2023/12/08 01:47:49;;;;;;;13.60;7.20;;;;;;;2.95;100.00;99141.94;12206190;19;20010;-83
2023/12/08 01:51:51;;;;;;;17.67;7.95;;;;;;;2.98;100.00;99146.94;12183533;19;20018;-83
2023/12/08 01:55:53;;;;;;;14.90;7.28;;;;;;;3.01;100.00;99132.88;12201294;19;20025;-83
2023/12/08 01:59:56;;;;;;;17.90;7.90;;;;;;;2.99;100.00;99120.56;12203049;19;20007;-83
2023/12/08 02:03:59;;;;;;;18.35;8.50;;;;;;;3.02;100.00;99134.56;12175529;19;20010;-83
2023/12/08 02:08:01;;;;;;;19.95;9.38;;;;;;;3.00;100.00;99144.81;12196631;19;20007;-82
2023/12/08 02:12:04;;;;;;;14.63;7.60;;;;;;;3.08;100.00;99163.63;12196045;19;20007;-83
2023/12/08 02:16:11;;;;;;;17.02;8.35;;;;;;;3.10;100.00;99174.31;12175322;19;20034;-84
2023/12/08 02:20:14;;;;;;;16.23;7.35;;;;;;;3.11;100.00;99162.34;12205063;19;20787;-83
2023/12/08 02:24:19;;;;;;;16.15;7.68;;;;;;;3.12;100.00;99164.00;12203555;19;20007;-85
2023/12/08 02:28:21;;;;;;;16.25;7.95;;;;;;;3.10;100.00;99164.25;12189179;19;20377;-84
2023/12/08 02:32:40;;;;;;;17.45;7.93;;;;;;;3.11;100.00;99152.28;12198529;19;20007;-84
2023/12/08 02:36:46;;;;;;;20.65;7.63;;;;;;;3.13;100.00;99143.94;12179055;19;20022;-85
2023/12/08 02:40:47;;;;;;;15.50;7.85;;;;;;;3.18;100.00;99133.19;12208560;19;20002;-86
2023/12/08 02:44:49;;;;;;;17.15;7.43;;;;;;;3.18;100.00;99122.31;12208237;19;20535;-85
2023/12/08 02:48:51;;;;;;;16.23;8.05;;;;;;;3.16;100.00;99124.44;12182978;19;20006;-85
2023/12/08 02:52:56;;;;;;;15.35;7.18;;;;;;;3.17;100.00;99117.94;12208555;19;20011;-84
2023/12/08 02:56:57;;;;;;;19.10;7.85;;;;;;;3.18;100.00;99130.47;12207649;19;20093;-84
2023/12/08 03:00:59;;;;;;;12.93;7.22;;;;;;;3.20;100.00;99123.75;12186105;19;20013;-84
2023/12/08 03:05:01;;;;;;;17.88;7.53;;;;;;;3.18;100.00;99114.13;12206745;19;20014;-83
2023/12/08 03:09:04;;;;;;;18.70;7.20;;;;;;;3.17;100.00;99123.38;12209067;19;20026;-85
2023/12/08 03:13:06;;;;;;;15.63;6.10;;;;;;;3.18;100.00;99109.56;12182142;19;20022;-83
2023/12/08 03:17:07;;;;;;;14.85;6.60;;;;;;;3.13;100.00;99117.53;12202955;19;20027;-85
2023/12/08 03:21:20;;;;;;;18.05;7.88;;;;;;;3.18;100.00;99114.13;12236598;19;20022;-85
2023/12/08 03:25:22;;;;;;;14.60;6.95;;;;;;;3.23;100.00;99110.78;12195168;19;20493;-85
2023/12/08 03:29:23;;;;;;;14.20;7.13;;;;;;;3.24;100.00;99115.97;12206476;19;20007;-85
2023/12/08 03:33:25;;;;;;;14.57;6.93;;;;;;;3.21;100.00;99124.59;12194795;19;20029;-85
2023/12/08 03:37:27;;;;;;;14.83;7.73;;;;;;;3.18;100.00;99123.16;12201884;19;20867;-85
2023/12/08 03:41:29;;;;;;;14.30;6.67;;;;;;;3.18;100.00;99115.00;12204196;19;20002;-85
2023/12/08 03:45:31;;;;;;;14.40;6.67;;;;;;;3.21;100.00;99110.97;12181978;19;20003;-85
2023/12/08 03:49:33;;;;;;;14.48;6.80;;;;;;;3.23;100.00;99111.59;12201509;19;20094;-85
2023/12/08 03:53:35;;;;;;;14.85;6.82;;;;;;;3.22;100.00;99101.78;12202272;19;20015;-84
2023/12/08 03:57:37;;;;;;;12.98;6.35;;;;;;;3.27;100.00;99112.00;12180714;19;20828;-85
2023/12/08 04:01:38;;;;;;;16.92;6.97;;;;;;;3.30;100.00;99096.06;12201626;19;20011;-84
2023/12/08 04:05:40;;;;;;;13.50;6.03;;;;;;;3.34;100.00;99085.56;12203228;19;20036;-83
2023/12/08 04:09:42;;;;;;;12.05;5.63;;;;;;;3.37;100.00;99087.84;12180660;19;20042;-84
2023/12/08 04:13:44;;;;;;;15.00;6.13;;;;;;;3.40;100.00;99079.22;12204281;19;20010;-83
2023/12/08 04:17:45;;;;;;;13.32;6.07;;;;;;;3.42;100.00;99072.50;12203161;19;20086;-83
2023/12/08 04:21:47;;;;;;;13.13;5.70;;;;;;;3.46;100.00;99061.19;12181216;19;20002;-84
2023/12/08 04:25:49;;;;;;;13.15;5.95;;;;;;;3.47;100.00;99054.66;12204167;19;20007;-83
2023/12/08 04:29:51;;;;;;;12.20;5.88;;;;;;;3.42;100.00;99052.59;12204934;19;20025;-84
2023/12/08 04:33:53;;;;;;;14.30;6.88;;;;;;;3.42;100.00;99052.59;12179385;19;20507;-84
2023/12/08 04:37:55;;;;;;;16.93;6.33;;;;;;;3.39;100.00;99047.59;12201615;19;20009;-85
2023/12/08 04:41:57;;;;;;;13.02;6.63;;;;;;;3.36;100.00;99053.47;12200229;19;20448;-83
2023/12/08 04:45:58;;;;;;;13.52;6.43;;;;;;;3.36;100.00;99050.75;12178292;19;20349;-83
2023/12/08 04:50:00;;;;;;;14.80;7.25;;;;;;;3.33;100.00;99052.06;12198359;19;20772;-83
2023/12/08 04:54:02;;;;;;;14.65;7.07;;;;;;;3.30;100.00;99060.66;12199349;19;20021;-83
2023/12/08 04:58:04;;;;;;;14.17;7.30;;;;;;;3.27;100.00;99054.81;12179525;19;20082;-83
2023/12/08 05:02:06;;;;;;;18.20;7.10;;;;;;;3.26;100.00;99062.16;12195725;19;20010;-82
2023/12/08 05:06:08;;;;;;;14.77;7.22;;;;;;;3.20;100.00;99072.03;12197482;19;20010;-81
2023/12/08 05:10:10;;;;;;;14.90;7.57;;;;;;;3.12;100.00;99077.75;12174506;19;20002;-81
2023/12/08 05:14:12;;;;;;;17.67;7.27;;;;;;;3.15;100.00;99088.22;12197026;19;20015;-81
2023/12/08 05:18:14;;;;;;;14.55;7.35;;;;;;;3.09;100.00;99086.34;12194441;19;20011;-80
2023/12/08 05:22:16;;;;;;;17.48;7.30;;;;;;;3.07;100.00;99082.19;12173492;19;20006;-82
2023/12/08 05:26:18;;;;;;;16.33;6.97;;;;;;;2.98;100.00;99084.34;12193514;19;20510;-81
2023/12/08 05:30:20;;;;;;;17.17;7.50;;;;;;;3.02;100.00;99076.56;12196181;19;20093;-82
2023/12/08 05:34:22;;;;;;;21.02;9.02;;;;;;;3.01;100.00;99064.03;12167870;19;20014;-81
2023/12/08 05:38:24;;;;;;;19.88;8.70;;;;;;;2.97;100.00;99085.38;12195792;19;20011;-81
2023/12/08 05:42:25;;;;;;;20.17;8.32;;;;;;;2.85;100.00;99089.84;12183817;19;20002;-82
2023/12/08 05:46:27;;;;;;;16.90;7.72;;;;;;;2.83;100.00;99105.56;12192488;19;20022;-80
2023/12/08 05:50:29;;;;;;;22.98;9.63;;;;;;;2.85;100.00;99108.88;12190891;19;20596;-81
2023/12/08 05:54:31;;;;;;;17.95;8.10;;;;;;;2.84;100.00;99115.38;12167936;19;20011;-81
2023/12/08 05:58:32;;;;;;;18.98;9.20;;;;;;;2.84;100.00;99120.84;12196552;19;20018;-80
2023/12/08 06:02:34;;;;;;;22.90;8.80;;;;;;;2.84;100.00;99120.84;12192757;19;20003;-81
2023/12/08 06:06:36;;;;;;;19.45;9.07;;;;;;;2.79;100.00;99123.34;12169991;19;20049;-80
2023/12/08 06:10:41;;;;;;;20.13;8.98;;;;;;;2.77;100.00;99109.13;12193306;19;20023;-82
2023/12/08 06:14:42;;;;;;;20.30;8.47;;;;;;;2.76;100.00;99110.19;12197328;19;20011;-84
2023/12/08 06:18:45;;;;;;;18.70;8.90;;;;;;;2.74;100.00;99108.53;12175674;19;20023;-85
2023/12/08 06:22:47;;;;;;;20.33;9.93;;;;;;;2.74;100.00;99113.13;12199581;19;20006;-85
2023/12/08 06:26:48;;;;;;;18.70;9.63;;;;;;;2.73;100.00;99117.72;12201599;19;20027;-84
2023/12/08 06:30:50;;;;;;;21.40;8.85;;;;;;;2.67;100.00;99117.75;12179695;19;20031;-84
2023/12/08 06:34:53;;;;;;;21.50;9.93;;;;;;;2.63;100.00;99116.53;12208728;19;20011;-87
2023/12/08 06:38:55;;;;;;;20.92;8.57;;;;;;;2.55;100.00;99109.44;12225805;19;20486;-86
2023/12/08 06:42:57;;;;;;;17.60;9.23;;;;;;;2.47;100.00;99106.97;12184460;19;20042;-87
2023/12/08 06:46:59;;;;;;;19.90;10.25;;;;;;;2.42;100.00;99106.78;12200755;19;20010;-85
2023/12/08 06:51:00;;;;;;;21.63;9.95;;;;;;;2.34;100.00;99098.84;12201534;19;20007;-84
2023/12/08 06:55:03;;;;;;;20.92;9.82;;;;;;;2.40;100.00;99103.41;12178520;19;20437;-82
2023/12/08 06:59:07;;;;;;;23.23;9.82;;;;;;;2.45;100.00;99104.47;12204632;19;20014;-83
2023/12/08 07:03:09;;;;;;;20.60;9.60;;;;;;;2.48;100.00;99103.19;12202153;19;20010;-82
2023/12/08 07:07:11;;;;;;;22.48;9.63;;;;;;;2.54;100.00;99115.94;12183769;19;20015;-82
2023/12/08 07:11:13;;;;;;;25.17;10.25;;;;;;;2.55;100.00;99122.19;12209532;19;20089;-82
2023/12/08 07:15:15;;;;;;;24.80;9.43;;;;;;;2.57;100.00;99120.94;12206948;19;20441;-83
2023/12/08 07:19:17;;;;;;;23.37;10.53;;;;;;;2.63;100.00;99122.81;12184794;19;20015;-81
2023/12/08 07:23:19;;;;;;;24.15;9.25;;;;;;;2.68;100.00;99106.69;12202861;19;20016;-79
2023/12/08 07:27:21;;;;;;;20.27;8.70;;;;;;;2.70;100.00;99109.16;12205696;19;20007;-81
2023/12/08 07:31:25;;;;;;;18.92;8.18;;;;;;;2.72;100.00;99118.78;12181801;19;21626;-81
2023/12/08 07:35:27;;;;;;;19.33;8.98;;;;;;;2.75;100.00;99098.47;12201034;19;20015;-79
2023/12/08 07:39:29;;;;;;;20.17;9.43;;;;;;;2.76;100.00;99091.16;12179990;19;20007;-81
2023/12/08 07:43:30;;;;;;;22.40;9.05;;;;;;;2.79;100.00;99086.09;12203921;19;20445;-81
2023/12/08 07:47:32;;;;;;;22.83;10.45;;;;;;;2.80;100.00;99095.13;12200055;19;21072;-80
2023/12/08 07:51:34;;;;;;;22.98;11.15;;;;;;;2.76;100.00;99089.25;12180507;19;20556;-80
2023/12/08 07:55:36;;;;;;;22.92;9.88;;;;;;;2.80;100.00;99090.50;12200166;19;20014;-80
2023/12/08 07:59:37;;;;;;;21.58;8.88;;;;;;;2.81;100.00;99092.16;12198436;19;20014;-82
2023/12/08 08:03:40;;;;;;;21.20;9.10;;;;;;;2.89;100.00;99101.97;12178934;19;20783;-81
2023/12/08 08:07:41;;;;;;;24.20;9.75;;;;;;;2.94;100.00;99096.69;12197510;19;20003;-79
2023/12/08 08:11:43;;;;;;;23.40;9.20;;;;;;;3.02;100.00;99101.88;12203124;19;20078;-80
2023/12/08 08:15:45;;;;;;;20.60;8.87;;;;;;;3.08;100.00;99113.78;12195326;19;20079;-79
2023/12/08 08:19:48;;;;;;;20.63;9.30;;;;;;;3.08;100.00;99117.34;12260521;19;20009;-78
2023/12/08 08:23:49;;;;;;;19.20;8.77;;;;;;;3.11;100.00;99114.19;12256547;19;20002;-78
2023/12/08 08:27:53;;;;;;;21.70;9.32;;;;;;;3.20;100.00;99123.75;12203026;19;20045;-78
2023/12/08 08:31:55;;;;;;;20.38;7.97;;;;;;;3.29;100.00;99112.63;12206290;19;20078;-83
2023/12/08 08:35:56;;;;;;;18.77;8.73;;;;;;;3.38;100.00;99109.41;12203541;19;20032;-79
2023/12/08 08:39:58;;;;;;;17.33;8.75;;;;;;;3.48;100.00;99106.22;12183746;19;20007;-80
2023/12/08 08:44:00;;;;;;;23.00;9.87;;;;;;;3.49;100.00;99094.25;12200517;19;20014;-80
2023/12/08 08:48:03;;;;;;;24.40;10.93;;;;;;;3.57;100.00;99098.56;12202674;19;20007;-82
2023/12/08 08:52:06;;;;;;;22.13;10.52;;;;;;;3.68;100.00;99097.03;12179711;19;20367;-81
2023/12/08 08:56:07;;;;;;;22.33;10.17;;;;;;;3.74;100.00;99109.75;12199128;19;20011;-81
2023/12/08 09:00:12;;;;;;;21.98;10.18;;;;;;;3.75;100.00;99120.44;12197925;19;20014;-81
2023/12/08 09:04:14;;;;;;;23.23;11.57;;;;;;;3.72;100.00;99126.34;12176175;19;20003;-79
2023/12/08 09:08:16;;;;;;;24.50;10.98;;;;;;;3.73;100.00;99128.00;12201605;19;20019;-80
2023/12/08 09:12:19;;;;;;;23.15;10.73;;;;;;;3.72;100.00;99122.75;12201043;19;20007;-83
2023/12/08 09:16:21;;;;;;;21.85;10.48;;;;;;;3.75;100.00;99131.34;12183868;19;20006;-84
2023/12/08 09:20:23;;;;;;;24.23;10.88;;;;;;;3.82;100.00;99144.91;12212029;19;20013;-81
2023/12/08 09:24:26;;;;;;;27.43;11.33;;;;;;;3.77;100.00;99139.28;12212189;19;20034;-84
2023/12/08 09:28:28;;;;;;;27.77;11.52;;;;;;;3.70;100.00;99142.06;12224500;19;20388;-80
2023/12/08 09:32:30;;;;;;;28.47;11.73;;;;;;;3.67;100.00;99152.59;12218097;19;20010;-81
2023/12/08 09:36:33;;;;;;;17.52;8.20;;;;;;;3.67;100.00;99150.69;12189960;19;20006;-80
2023/12/08 09:40:37;;;;;;;24.80;11.05;;;;;;;3.64;100.00;99143.78;12217508;19;20011;-79
2023/12/08 09:44:39;;;;;;;21.73;10.45;;;;;;;3.69;100.00;99147.72;12205502;19;20006;-80
2023/12/08 09:48:45;;;;;;;22.00;9.83;;;;;;;3.65;100.00;99140.00;12189507;19;20018;-85
2023/12/08 09:52:48;;;;;;;23.55;10.20;;;;;;;3.63;100.00;99141.31;12228226;19;20011;-82
2023/12/08 09:56:54;;;;;;;26.52;11.13;;;;;;;3.63;100.00;99142.13;12230959;19;20011;-80
2023/12/08 10:00:58;;;;;;;25.15;11.32;;;;;;;3.71;100.00;99146.47;12171038;19;19999;-81
2023/12/08 10:04:59;;;;;;;25.55;10.88;;;;;;;3.76;100.00;99148.53;12215443;19;20026;-83
2023/12/08 10:09:03;;;;;;;26.83;11.23;;;;;;;3.86;100.00;99143.41;12216848;19;19998;-80
2023/12/08 10:13:05;;;;;;;26.02;11.40;;;;;;;3.92;100.00;99144.41;12190099;19;20014;-83
2023/12/08 10:17:07;;;;;;;25.35;11.00;;;;;;;3.97;100.00;99137.22;12217417;19;20011;-83
2023/12/08 10:21:19;;;;;;;24.10;11.02;;;;;;;4.01;100.00;99137.59;12217920;19;20011;-81
2023/12/08 10:25:24;;;;;;;28.17;11.00;;;;;;;4.03;100.00;99146.41;12197130;19;20014;-80
2023/12/08 10:29:33;;;;;;;27.10;10.35;;;;;;;4.05;100.00;99153.31;12208588;19;20374;-80
2023/12/08 10:33:35;;;;;;;27.48;12.18;;;;;;;4.03;100.00;99135.50;12187391;19;20022;-82
2023/12/08 10:37:39;;;;;;;25.97;11.67;;;;;;;4.03;100.00;99136.34;12208992;19;20011;-80
2023/12/08 10:41:41;;;;;;;24.83;11.63;;;;;;;4.10;100.00;99141.72;12223794;19;20319;-82
2023/12/08 10:45:43;;;;;;;25.38;11.77;;;;;;;4.17;100.00;99133.50;12206559;19;20010;-80
2023/12/08 10:49:47;;;;;;;25.05;11.70;;;;;;;4.27;100.00;99129.16;12231411;19;20007;-82
2023/12/08 10:53:50;;;;;;;28.08;12.18;;;;;;;4.40;100.00;99136.38;12230932;19;20011;-80
2023/12/08 10:57:55;;;;;;;26.50;11.30;;;;;;;4.39;100.00;99137.44;12204747;19;20058;-80
2023/12/08 11:02:01;;;;;;;29.30;11.90;;;;;;;4.43;100.00;99140.53;12227826;19;20014;-82
2023/12/08 11:06:11;;;;;;;25.05;11.98;;;;;;;4.49;100.00;99137.78;12228441;19;20043;-81
2023/12/08 11:10:14;;;;;;;23.38;10.95;;;;;;;4.52;100.00;99131.88;12210516;19;20026;-81
2023/12/08 11:14:36;;;;;;;23.83;11.63;;;;;;;4.50;100.00;99135.88;12223806;19;20014;-80
2023/12/08 11:18:40;;;;;;;24.13;12.05;;;;;;;4.47;100.00;99142.59;12206577;19;20015;-79
2023/12/08 11:22:45;;;;;;;25.35;12.20;;;;;;;4.52;100.00;99150.09;12226520;19;20003;-81
2023/12/08 11:26:58;;;;;;;25.48;11.90;;;;;;;4.59;100.00;99159.06;12228792;19;20010;-81
2023/12/08 11:31:06;;;;;;;25.53;12.13;;;;;;;4.56;100.00;99154.88;12198000;19;20540;-82
2023/12/08 11:35:14;;;;;;;28.00;12.77;;;;;;;4.45;100.00;99161.09;12215032;19;20038;-81
2023/12/08 11:39:42;;;;;;;31.13;12.60;;;;;;;4.44;100.00;99156.69;12218094;19;20528;-82
2023/12/08 11:43:45;;;;;;;25.02;11.45;;;;;;;4.43;100.00;99160.50;12194459;19;20007;-81
2023/12/08 11:47:47;;;;;;;30.95;11.48;;;;;;;4.44;100.00;99156.69;12218247;19;20019;-81
2023/12/08 11:52:13;;;;;;;25.67;12.20;;;;;;;4.43;100.00;99148.72;12195939;19;20088;-81
2023/12/08 11:56:37;;;;;;;33.25;13.38;;;;;;;4.47;100.00;99164.44;12216430;19;20644;-81
2023/12/08 12:00:39;;;;;;;28.98;12.75;;;;;;;4.54;100.00;99178.81;12197109;19;20012;-81
2023/12/08 12:04:42;;;;;;;34.95;14.30;;;;;;;4.60;100.00;99168.06;12187769;19;20011;-80
2023/12/08 12:08:44;;;;;;;29.30;14.10;;;;;;;4.67;100.00;99160.63;12194573;19;20046;-81
2023/12/08 12:12:54;;;;;;;32.50;13.80;;;;;;;4.71;100.00;99157.25;12183475;19;20008;-81
2023/12/08 12:16:57;;;;;;;26.02;12.43;;;;;;;4.73;100.00;99159.72;12222663;19;20026;-82
2023/12/08 12:20:59;;;;;;;29.67;13.90;;;;;;;4.77;100.00;99172.72;12228849;19;20007;-81
2023/12/08 12:25:01;;;;;;;21.48;9.57;;;;;;;4.78;100.00;99171.63;12202193;19;20017;-81
2023/12/08 12:29:02;;;;;;;29.05;12.18;;;;;;;4.76;100.00;99175.69;12229806;19;20010;-83
2023/12/08 12:33:04;;;;;;;32.13;13.25;;;;;;;4.69;100.00;99167.53;12223856;19;20366;-80
2023/12/08 12:37:07;;;;;;;32.63;13.77;;;;;;;4.71;100.00;99164.59;12194138;19;20018;-79
2023/12/08 12:41:23;;;;;;;34.00;13.35;;;;;;;4.77;100.00;99160.97;12219628;19;20022;-81
2023/12/08 12:45:29;;;;;;;32.80;14.10;;;;;;;4.75;100.00;99144.78;12225815;19;20015;-80
2023/12/08 12:49:32;;;;;;;34.50;14.60;;;;;;;4.76;100.00;99142.94;12201109;19;20090;-81
2023/12/08 12:53:45;;;;;;;34.50;14.80;;;;;;;4.77;100.00;99144.59;12231907;19;20030;-81
2023/12/08 12:57:50;;;;;;;41.50;16.08;;;;;;;4.79;100.00;99146.03;12201864;19;20043;-82
2023/12/08 13:01:51;;;;;;;41.33;15.30;;;;;;;4.94;100.00;99150.25;12219939;19;20015;-82
2023/12/08 13:05:56;;;;;;;42.28;18.02;;;;;;;4.96;100.00;99157.13;12217850;19;20018;-81
2023/12/08 13:09:59;;;;;;;37.58;16.25;;;;;;;4.93;100.00;99154.88;12203629;19;20010;-81
2023/12/08 13:14:00;;;;;;;39.38;16.90;;;;;;;5.06;100.00;99158.50;12228264;19;20014;-82
2023/12/08 13:18:03;;;;;;;38.05;16.23;;;;;;;5.19;100.00;99155.59;12218613;19;20022;-81
2023/12/08 13:22:05;;;;;;;38.90;16.33;;;;;;;5.29;100.00;99168.69;12201837;19;20013;-79
2023/12/08 13:26:07;;;;;;;36.60;16.05;;;;;;;5.31;100.00;99166.56;12219455;19;20011;-83
2023/12/08 13:30:09;;;;;;;35.00;16.33;;;;;;;5.38;100.00;99168.13;12211492;19;20010;-83
2023/12/08 13:34:11;;;;;;;36.38;16.10;;;;;;;5.36;100.00;99177.66;12186914;19;20003;-81
2023/12/08 13:38:13;;;;;;;37.47;16.52;;;;;;;5.34;100.00;99182.50;12222673;19;20441;-79
2023/12/08 13:42:15;;;;;;;27.10;12.73;;;;;;;5.38;100.00;99179.06;12212376;19;20010;-82
2023/12/08 13:46:17;;;;;;;42.13;15.13;;;;;;;5.39;100.00;99179.91;12182697;19;20014;-80
2023/12/08 13:50:19;;;;;;;36.27;14.97;;;;;;;5.36;100.00;99186.69;12210258;19;20021;-80
2023/12/08 13:54:22;;;;;;;39.25;15.95;;;;;;;5.29;100.00;99196.00;12204643;19;20103;-81
2023/12/08 13:58:24;;;;;;;;;;;;;;;5.23;100.00;99203.22;12184009;19;20017;-80
2023/12/08 14:02:26;;;;;;;34.77;13.77;;;;;;;5.31;100.00;99200.19;12198831;19;19907;-80
2023/12/08 14:06:28;;;;;;;37.13;14.50;;;;;;;5.32;100.00;99220.13;12181757;19;20519;-80
2023/12/08 14:10:30;;;;;;;36.30;15.23;;;;;;;5.33;100.00;99213.63;12210732;19;20623;-80
2023/12/08 14:14:31;;;;;;;45.10;17.95;;;;;;;5.25;100.00;99222.97;12207054;19;21062;-80
2023/12/08 14:18:33;;;;;;;68.55;18.63;;;;;;;5.15;100.00;99223.50;12196498;19;20422;-81
2023/12/08 14:22:36;;;;;;;51.47;18.43;;;;;;;5.01;100.00;99222.00;12227725;19;20503;-80
2023/12/08 14:26:40;;;;;;;42.10;16.33;;;;;;;4.99;100.00;99224.09;12217976;19;20282;-80
2023/12/08 14:30:43;;;;;;;45.17;17.98;;;;;;;4.99;100.00;99230.41;12187877;19;20014;-82
2023/12/08 14:34:44;;;;;;;48.67;16.83;;;;;;;5.06;100.00;99229.50;12221546;19;20006;-81
2023/12/08 14:38:47;;;;;;;40.78;16.38;;;;;;;5.07;100.00;99226.53;12217598;19;20015;-81
2023/12/08 14:42:48;;;;;;;37.13;16.27;;;;;;;5.11;100.00;99229.66;12212218;19;20034;-81
2023/12/08 14:46:50;;;;;;;41.53;15.27;;;;;;;5.15;100.00;99228.16;12227977;19;20010;-82
2023/12/08 14:50:52;;;;;;;37.58;16.42;;;;;;;5.09;100.00;99242.72;12224098;19;20015;-82
2023/12/08 14:54:54;;;;;;;47.55;17.85;;;;;;;5.07;100.00;99240.19;12199159;19;20057;-80
2023/12/08 14:59:00;;;;;;;46.05;17.75;;;;;;;5.07;100.00;99244.84;12225561;19;20078;-80
2023/12/08 15:03:02;;;;;;;46.30;16.95;;;;;;;5.11;100.00;99256.94;12221081;19;20117;-81
2023/12/08 15:07:06;;;;;;;42.33;15.65;;;;;;;5.15;100.00;99261.75;12203230;19;20010;-81
2023/12/08 15:11:09;;;;;;;44.58;16.30;;;;;;;5.18;100.00;99265.94;12214185;19;20377;-80
2023/12/08 15:15:11;;;;;;;43.55;15.98;;;;;;;5.18;100.00;99266.75;12233186;19;20025;-80
2023/12/08 15:19:13;;;;;;;52.87;18.20;;;;;;;5.13;100.00;99266.59;12203751;19;20007;-80
2023/12/08 15:23:31;;;;;;;47.63;19.02;;;;;;;5.13;100.00;99268.50;12236808;19;20010;-82
2023/12/08 15:27:33;;;;;;;52.10;18.08;;;;;;;5.09;100.00;99265.38;12234438;19;20039;-82
2023/12/08 15:31:38;;;;;;;46.55;17.15;;;;;;;5.08;100.00;99266.44;12269371;19;20054;-83
2023/12/08 15:35:41;;;;;;;54.40;19.60;;;;;;;5.12;100.00;99272.28;12240879;19;20009;-81
2023/12/08 15:39:43;;;;;;;49.33;18.38;;;;;;;5.10;100.00;99282.59;12206388;19;20405;-83
2023/12/08 15:43:45;;;;;;;46.08;16.98;;;;;;;5.11;100.00;99292.47;12239195;19;20006;-83
2023/12/08 15:47:47;;;;;;;50.70;17.98;;;;;;;5.07;100.00;99288.53;12233684;19;20015;-82
2023/12/08 15:51:49;;;;;;;72.27;21.50;;;;;;;5.01;100.00;99291.09;12212404;19;20066;-82
2023/12/08 15:55:51;;;;;;;50.35;18.65;;;;;;;4.95;100.00;99289.25;12231988;19;20018;-81
2023/12/08 15:59:53;;;;;;;;;;;;;;;4.96;100.00;99301.00;12229536;19;20011;-83
2023/12/08 16:03:55;;;;;;;48.67;16.35;;;;;;;5.00;100.00;99302.25;12208367;19;19911;-82
2023/12/08 16:07:57;;;;;;;44.92;17.35;;;;;;;5.08;100.00;99292.91;12213638;19;20014;-81
2023/12/08 16:11:59;;;;;;;49.47;18.33;;;;;;;5.10;100.00;99301.72;12222696;19;20014;-81
2023/12/08 16:16:05;;;;;;;56.38;18.38;;;;;;;5.07;100.00;99304.91;12200681;19;20554;-84
2023/12/08 16:20:08;;;;;;;45.80;17.67;;;;;;;5.12;100.00;99308.63;12220427;19;20137;-82
2023/12/08 16:24:09;;;;;;;51.00;18.20;;;;;;;5.19;100.00;99323.03;12219952;19;20035;-82
2023/12/08 16:28:12;;;;;;;55.83;19.33;;;;;;;5.21;100.00;99325.56;12204608;19;20007;-82
2023/12/08 16:32:14;;;;;;;49.08;19.23;;;;;;;5.17;100.00;99335.25;12226941;19;20019;-81
2023/12/08 16:36:16;;;;;;;66.93;21.88;;;;;;;5.14;100.00;99339.25;12221386;19;20010;-82
2023/12/08 16:40:18;;;;;;;64.47;21.27;;;;;;;5.15;100.00;99334.66;12205624;19;20048;-82
2023/12/08 16:44:20;;;;;;;53.97;20.10;;;;;;;5.07;100.00;99334.94;12222934;19;20011;-82
2023/12/08 16:48:22;;;;;;;63.88;22.17;;;;;;;4.97;100.00;99336.31;12225120;19;20022;-82
2023/12/08 16:52:24;;;;;;;58.55;19.92;;;;;;;4.96;100.00;99333.78;12202571;19;20010;-83
2023/12/08 16:56:26;;;;;;;55.07;21.03;;;;;;;4.96;100.00;99341.97;12224152;19;20041;-81
2023/12/08 17:00:28;;;;;;;68.75;23.85;;;;;;;5.02;100.00;99341.91;12212957;19;20010;-81
2023/12/08 17:04:29;;;;;;;62.15;22.52;;;;;;;5.09;100.00;99343.75;12214374;19;20386;-81
2023/12/08 17:08:32;;;;;;;54.33;20.05;;;;;;;5.15;100.00;99343.69;12219078;19;20709;-81
2023/12/08 17:12:34;;;;;;;52.40;18.35;;;;;;;5.17;100.00;99351.63;12201399;19;20018;-81
2023/12/08 17:16:36;;;;;;;61.53;20.33;;;;;;;5.15;100.00;99351.88;12220234;19;20018;-82
2023/12/08 17:20:38;;;;;;;62.97;20.60;;;;;;;5.13;100.00;99373.09;12218777;19;20021;-80
2023/12/08 17:24:39;;;;;;;62.88;20.65;;;;;;;5.03;100.00;99379.09;12200553;19;20006;-81
2023/12/08 17:28:41;;;;;;;73.00;21.00;;;;;;;5.01;100.00;99375.75;12221177;19;20017;-81
2023/12/08 17:32:43;;;;;;;65.15;22.33;;;;;;;4.90;100.00;99384.66;12217099;19;20006;-81
2023/12/08 17:36:45;;;;;;;151.98;28.73;;;;;;;4.87;100.00;99378.81;12189426;19;20007;-82
2023/12/08 17:40:47;;;;;;;163.10;28.93;;;;;;;4.79;100.00;99388.97;12223394;19;20010;-81
2023/12/08 17:44:48;;;;;;;62.08;20.67;;;;;;;4.70;100.00;99384.84;12219962;19;20010;-80
2023/12/08 17:48:50;;;;;;;80.68;23.77;;;;;;;4.72;100.00;99390.91;12194676;19;20021;-81
2023/12/08 17:52:52;;;;;;;47.25;16.83;;;;;;;4.69;100.00;99393.25;12209592;19;20058;-81
2023/12/08 17:56:54;;;;;;;85.22;21.95;;;;;;;4.71;100.00;99396.59;12208291;19;20002;-82
2023/12/08 18:00:56;;;;;;;65.43;22.48;;;;;;;4.66;100.00;99404.59;12175794;19;20010;-80
2023/12/08 18:04:58;;;;;;;70.90;23.35;;;;;;;4.68;100.00;99408.78;12204107;19;20014;-81
2023/12/08 18:09:03;;;;;;;78.35;22.58;;;;;;;4.73;100.00;99408.09;12209940;19;20011;-81
2023/12/08 18:13:06;;;;;;;72.85;24.35;;;;;;;4.76;100.00;99418.59;12174461;19;20358;-79
2023/12/08 18:17:08;;;;;;;;;;;;;;;4.72;100.00;99415.47;12199676;19;20019;-80
2023/12/08 18:21:10;;;;;;;72.72;23.23;;;;;;;4.76;100.00;99427.63;12203102;19;19910;-80
2023/12/08 18:25:11;;;;;;;75.40;22.63;;;;;;;4.78;100.00;99438.31;12176770;19;20006;-80
2023/12/08 18:29:15;;;;;;;68.90;22.10;;;;;;;4.78;100.00;99444.59;12207576;19;20015;-80
2023/12/08 18:33:17;;;;;;;100.70;24.65;;;;;;;4.84;100.00;99455.69;12206257;19;20014;-80